Time;durP1;ratioP1;P1;durP2;ratioP2;P2;SDS_P1;SDS_P2;PMS_P1;PMS_P2;Temp;Humidity;BMP_temperature;BMP_pressure;BME280_temperature;BME280_humidity;BME280_pressure;Samples;Min_cycle;Max_cycle;Signal;HPM_P1;HPM_P2
2021/12/31 00:02:07;;;;;;;;;;;13.60;99.90;;;;;;5074602;28;19977;-62
2021/12/31 00:04:33;;;;;;;;;;;13.60;99.90;;;;;;5085315;28;19916;-63
2021/12/31 00:06:58;;;;;;;;;;;13.60;99.90;;;;;;5054768;28;19956;-63
2021/12/31 00:09:24;;;;;;;;;;;13.50;99.90;;;;;;5079638;28;19980;-63
2021/12/31 00:11:49;;;;;;;;;;;13.60;99.90;;;;;;5082803;28;20529;-63
2021/12/31 00:14:15;;;;;;;;;;;13.60;99.90;;;;;;5075642;28;19931;-63
2021/12/31 00:16:41;;;;;;;;;;;13.50;99.90;;;;;;5072398;28;20295;-63
2021/12/31 00:19:07;;;;;;;;;;;13.50;99.90;;;;;;5081052;28;19916;-63
2021/12/31 00:21:36;;;;;;;;;;;13.50;99.90;;;;;;5088484;28;19923;-63
2021/12/31 00:24:02;;;;;;;;;;;13.50;99.90;;;;;;5075837;28;19916;-63
2021/12/31 00:26:27;;;;;;;;;;;13.50;99.90;;;;;;5088000;28;20436;-63
2021/12/31 00:28:53;;;;;;;;;;;13.60;99.90;;;;;;5060297;28;20032;-63
2021/12/31 00:31:18;;;;;;;;;;;13.60;99.90;;;;;;5077142;28;19924;-63
2021/12/31 00:33:44;;;;;;;;;;;13.60;99.90;;;;;;5080421;28;19970;-63
2021/12/31 00:36:09;;;;;;;;;;;13.60;99.90;;;;;;5076644;28;19916;-63
2021/12/31 00:38:35;;;;;;;;;;;13.60;99.90;;;;;;5078447;28;19947;-63
2021/12/31 00:41:00;;;;;;;;;;;13.60;99.90;;;;;;5079218;28;19970;-63
2021/12/31 00:43:26;;;;;;;;;;;13.60;99.90;;;;;;5078977;28;20497;-63
2021/12/31 00:45:51;;;;;;;;;;;13.60;99.90;;;;;;5084456;28;19920;-63
2021/12/31 00:48:17;;;;;;;;;;;13.60;99.90;;;;;;5079328;28;19916;-63
2021/12/31 00:50:42;;;;;;;;;;;13.60;99.90;;;;;;5082725;28;20673;-63
2021/12/31 00:53:08;;;;;;;;;;;13.60;99.90;;;;;;5085529;28;19991;-63
2021/12/31 00:55:33;;;;;;;;;;;13.60;99.90;;;;;;5084714;28;19920;-63
2021/12/31 00:57:59;;;;;;;;;;;13.60;99.90;;;;;;5077640;28;19920;-63
2021/12/31 01:00:25;;;;;;;;;;;13.60;99.90;;;;;;5078863;28;20373;-63
2021/12/31 01:02:50;;;;;;;;;;;13.60;99.90;;;;;;5087675;28;20347;-63
2021/12/31 01:05:16;;;;;;;;;;;13.70;99.90;;;;;;5073377;28;20657;-63
2021/12/31 01:07:41;;;;;;;;;;;13.70;99.90;;;;;;5082278;28;20242;-63
2021/12/31 01:10:10;;;;;;;;;;;13.70;99.90;;;;;;5074176;28;19917;-63
2021/12/31 01:12:36;;;;;;;;;;;13.80;99.90;;;;;;5076895;28;19920;-63
2021/12/31 01:15:06;;;;;;;;;;;13.70;99.90;;;;;;5081561;28;19973;-63
2021/12/31 01:20:10;;;;;;;;;;;13.70;99.90;;;;;;5080994;28;20015;-63
2021/12/31 01:22:36;;;;;;;;;;;13.70;99.90;;;;;;5080648;28;19931;-63
2021/12/31 01:25:04;;;;;;;;;;;13.70;99.90;;;;;;5088509;28;19916;-63
2021/12/31 01:27:29;;;;;;;;;;;13.70;99.90;;;;;;5087533;28;19929;-63
2021/12/31 01:29:55;;;;;;;;;;;13.70;99.90;;;;;;5082855;28;19931;-63
2021/12/31 01:32:20;;;;;;;;;;;13.70;99.90;;;;;;5075584;28;20295;-63
2021/12/31 01:34:46;;;;;;;;;;;13.70;99.90;;;;;;5080641;28;20458;-63
2021/12/31 01:37:11;;;;;;;;;;;13.70;99.90;;;;;;5079484;28;19927;-63
2021/12/31 01:39:37;;;;;;;;;;;13.70;99.90;;;;;;5072314;28;19927;-63
2021/12/31 01:42:06;;;;;;;;;;;13.70;99.90;;;;;;5080540;28;19968;-63
2021/12/31 01:44:41;;;;;;;;;;;13.80;99.90;;;;;;5080090;28;19920;-63
2021/12/31 01:47:11;;;;;;;;;;;13.80;99.90;;;;;;5080845;28;20002;-63
2021/12/31 01:49:39;;;;;;;;;;;13.80;99.90;;;;;;5068478;28;19943;-63
2021/12/31 01:52:06;;;;;;;;;;;13.70;99.90;;;;;;5078593;28;20313;-63
2021/12/31 01:54:32;;;;;;;;;;;13.70;99.90;;;;;;5078255;28;19921;-63
2021/12/31 01:57:00;;;;;;;;;;;13.70;99.90;;;;;;5082960;28;20371;-63
2021/12/31 01:59:26;;;;;;;;;;;13.80;99.90;;;;;;5079580;28;19916;-63
2021/12/31 02:01:52;;;;;;;;;;;13.70;99.90;;;;;;5081573;28;19970;-63
2021/12/31 02:04:18;;;;;;;;;;;13.70;99.90;;;;;;5080302;28;20546;-63
2021/12/31 02:06:43;;;;;;;;;;;13.70;99.90;;;;;;5081038;28;20299;-63
2021/12/31 02:09:09;;;;;;;;;;;13.70;99.90;;;;;;5070838;28;19917;-63
2021/12/31 02:11:34;;;;;;;;;;;13.80;99.90;;;;;;5081800;28;19981;-63
2021/12/31 02:14:01;;;;;;;;;;;13.80;99.90;;;;;;5076892;28;20030;-63
2021/12/31 02:16:26;;;;;;;;;;;13.70;99.90;;;;;;5081910;28;20681;-63
2021/12/31 02:18:52;;;;;;;;;;;13.70;99.90;;;;;;5087928;28;20069;-63
2021/12/31 02:21:17;;;;;;;;;;;13.60;99.90;;;;;;5083550;28;19924;-63
2021/12/31 02:23:47;;;;;;;;;;;13.70;99.90;;;;;;5078466;28;20037;-63
2021/12/31 02:26:13;;;;;;;;;;;13.70;99.90;;;;;;5090030;28;19916;-63
2021/12/31 02:28:39;;;;;;;;;;;13.70;99.90;;;;;;5083775;28;19917;-63
2021/12/31 02:31:04;;;;;;;;;;;13.70;99.90;;;;;;5079301;28;20027;-63
2021/12/31 02:33:30;;;;;;;;;;;13.60;99.90;;;;;;5081470;28;19931;-63
2021/12/31 02:35:56;;;;;;;;;;;13.60;99.90;;;;;;5086727;28;19920;-63
2021/12/31 02:38:21;;;;;;;;;;;13.60;99.90;;;;;;5083911;28;22447;-63
2021/12/31 02:40:47;;;;;;;;;;;13.60;99.90;;;;;;5088610;28;19923;-63
2021/12/31 02:43:12;;;;;;;;;;;13.70;99.90;;;;;;5076723;28;19935;-63
2021/12/31 02:45:40;;;;;;;;;;;13.70;99.90;;;;;;5078775;28;19923;-63
2021/12/31 02:48:06;;;;;;;;;;;13.70;99.90;;;;;;5077138;28;20286;-63
2021/12/31 02:50:34;;;;;;;;;;;13.70;99.90;;;;;;5077960;28;19917;-63
2021/12/31 02:53:00;;;;;;;;;;;13.60;99.90;;;;;;5082838;28;19981;-63
2021/12/31 02:55:30;;;;;;;;;;;13.60;99.90;;;;;;5073265;28;20389;-63
2021/12/31 02:57:56;;;;;;;;;;;13.60;99.90;;;;;;5082056;28;19924;-63
2021/12/31 03:00:21;;;;;;;;;;;13.60;99.90;;;;;;5055948;28;19923;-63
2021/12/31 03:02:47;;;;;;;;;;;13.70;99.90;;;;;;5088002;28;20306;-63
2021/12/31 03:05:13;;;;;;;;;;;13.70;99.90;;;;;;5074539;28;19927;-63
2021/12/31 03:07:40;;;;;;;;;;;13.60;99.90;;;;;;5079385;28;19916;-63
2021/12/31 03:10:05;;;;;;;;;;;13.60;99.90;;;;;;5081678;28;20313;-63
2021/12/31 03:12:31;;;;;;;;;;;13.60;99.90;;;;;;5079011;28;19924;-63
2021/12/31 03:14:57;;;;;;;;;;;13.60;99.90;;;;;;5075231;28;19912;-63
2021/12/31 03:17:23;;;;;;;;;;;13.60;99.90;;;;;;5077420;28;20379;-63
2021/12/31 03:19:48;;;;;;;;;;;13.60;99.90;;;;;;5078198;28;19916;-63
2021/12/31 03:22:13;;;;;;;;;;;13.60;99.90;;;;;;5081209;28;20020;-63
2021/12/31 03:24:40;;;;;;;;;;;13.50;99.90;;;;;;5077133;28;19998;-63
2021/12/31 03:27:05;;;;;;;;;;;13.60;99.90;;;;;;5085104;28;19916;-63
2021/12/31 03:29:31;;;;;;;;;;;13.60;99.90;;;;;;5084970;28;19916;-63
2021/12/31 03:31:56;;;;;;;;;;;13.70;99.90;;;;;;5081542;28;19969;-63
2021/12/31 03:34:22;;;;;;;;;;;13.60;99.90;;;;;;5074547;28;21827;-63
2021/12/31 03:36:47;;;;;;;;;;;13.60;99.90;;;;;;5080230;28;19955;-63
2021/12/31 03:39:13;;;;;;;;;;;13.60;99.90;;;;;;5078533;28;20142;-64
2021/12/31 03:41:38;;;;;;;;;;;13.60;99.90;;;;;;5078500;28;19916;-63
2021/12/31 03:44:04;;;;;;;;;;;13.60;99.90;;;;;;5078551;28;19962;-63
2021/12/31 03:46:30;;;;;;;;;;;13.60;99.90;;;;;;5072751;28;19916;-63
2021/12/31 03:48:55;;;;;;;;;;;13.60;99.90;;;;;;5075340;28;19916;-63
2021/12/31 03:51:21;;;;;;;;;;;13.60;99.90;;;;;;5076457;28;19986;-63
2021/12/31 03:53:46;;;;;;;;;;;13.60;99.90;;;;;;5076191;28;19916;-63
2021/12/31 03:56:12;;;;;;;;;;;13.60;99.90;;;;;;5076664;28;20352;-63
2021/12/31 03:58:37;;;;;;;;;;;13.60;99.90;;;;;;5080303;28;19917;-63
2021/12/31 04:01:03;;;;;;;;;;;13.50;99.90;;;;;;5082671;28;20030;-63
2021/12/31 04:03:28;;;;;;;;;;;13.50;99.90;;;;;;5077750;28;19924;-63
2021/12/31 04:05:54;;;;;;;;;;;13.50;99.90;;;;;;5070142;28;19959;-63
2021/12/31 04:08:20;;;;;;;;;;;13.50;99.90;;;;;;5099332;27;19916;-63
2021/12/31 04:10:46;;;;;;;;;;;13.50;99.90;;;;;;5074912;27;19916;-63
2021/12/31 04:13:11;;;;;;;;;;;13.60;99.90;;;;;;5074062;28;19920;-63
2021/12/31 04:15:37;;;;;;;;;;;13.50;99.90;;;;;;5075176;28;19981;-63
2021/12/31 04:18:02;;;;;;;;;;;13.40;99.90;;;;;;5072120;28;19924;-63
2021/12/31 04:20:41;;;;;;;;;;;13.40;99.90;;;;;;5077604;28;19916;-63
2021/12/31 04:23:12;;;;;;;;;;;13.40;99.90;;;;;;5075572;28;20468;-63
2021/12/31 04:25:37;;;;;;;;;;;13.40;99.90;;;;;;5078124;28;19924;-63
2021/12/31 04:28:04;;;;;;;;;;;13.40;99.90;;;;;;5076808;28;19940;-63
2021/12/31 04:30:29;;;;;;;;;;;13.40;99.90;;;;;;5075381;28;19927;-63
2021/12/31 04:32:55;;;;;;;;;;;13.30;99.90;;;;;;5073417;28;19928;-63
2021/12/31 04:35:20;;;;;;;;;;;13.30;99.90;;;;;;5088532;28;20064;-65
2021/12/31 04:37:46;;;;;;;;;;;13.30;99.90;;;;;;5078000;28;20291;-64
2021/12/31 04:40:12;;;;;;;;;;;13.30;99.90;;;;;;5099840;28;20008;-63
2021/12/31 04:42:43;;;;;;;;;;;13.30;99.90;;;;;;5083682;28;20658;-63
2021/12/31 04:45:10;;;;;;;;;;;13.30;99.90;;;;;;5074032;28;20057;-63
2021/12/31 04:47:36;;;;;;;;;;;13.40;99.90;;;;;;5075295;28;20363;-63
2021/12/31 04:50:02;;;;;;;;;;;13.30;99.90;;;;;;5079779;28;19923;-63
2021/12/31 04:52:28;;;;;;;;;;;13.40;99.90;;;;;;5098061;28;19923;-63
2021/12/31 04:54:53;;;;;;;;;;;13.40;99.90;;;;;;5093926;28;19968;-63
2021/12/31 04:57:21;;;;;;;;;;;13.30;99.90;;;;;;5075043;28;19921;-63
2021/12/31 04:59:46;;;;;;;;;;;13.40;99.90;;;;;;5063692;28;19946;-64
2021/12/31 05:02:11;;;;;;;;;;;13.40;99.90;;;;;;5086526;28;20267;-63
2021/12/31 05:04:37;;;;;;;;;;;13.40;99.90;;;;;;5077136;28;19923;-63
2021/12/31 05:07:03;;;;;;;;;;;13.40;99.90;;;;;;5077979;28;20372;-63
2021/12/31 05:09:28;;;;;;;;;;;13.30;99.90;;;;;;5072215;28;20001;-63
2021/12/31 05:11:54;;;;;;;;;;;13.30;99.90;;;;;;5075163;28;20553;-63
2021/12/31 05:14:19;;;;;;;;;;;13.20;99.90;;;;;;5074022;28;19927;-63
2021/12/31 05:16:45;;;;;;;;;;;13.30;99.90;;;;;;5082350;28;20065;-63
2021/12/31 05:19:10;;;;;;;;;;;13.30;99.90;;;;;;5076688;28;20280;-63
2021/12/31 05:21:36;;;;;;;;;;;13.30;99.90;;;;;;5075658;28;19920;-63
2021/12/31 05:24:01;;;;;;;;;;;13.20;99.90;;;;;;5081480;28;19927;-63
2021/12/31 05:26:27;;;;;;;;;;;13.30;99.90;;;;;;5079874;28;19931;-63
2021/12/31 05:28:52;;;;;;;;;;;13.20;99.90;;;;;;5078925;28;19920;-63
2021/12/31 05:31:18;;;;;;;;;;;13.30;99.90;;;;;;5085592;28;19920;-63
2021/12/31 05:33:43;;;;;;;;;;;13.20;99.90;;;;;;5084712;28;20511;-63
2021/12/31 05:36:09;;;;;;;;;;;13.20;99.90;;;;;;5083413;28;19916;-63
2021/12/31 05:38:34;;;;;;;;;;;13.20;99.90;;;;;;5079098;28;20414;-63
2021/12/31 05:41:00;;;;;;;;;;;13.20;99.90;;;;;;5080912;28;20407;-63
2021/12/31 05:43:25;;;;;;;;;;;13.20;99.90;;;;;;5077166;28;19993;-63
2021/12/31 05:45:51;;;;;;;;;;;13.30;99.90;;;;;;5077141;28;20197;-63
2021/12/31 05:48:17;;;;;;;;;;;13.30;99.90;;;;;;5081056;28;19965;-63
2021/12/31 05:50:42;;;;;;;;;;;13.30;99.90;;;;;;5080498;28;19970;-63
2021/12/31 05:53:08;;;;;;;;;;;13.20;99.90;;;;;;5077717;28;20576;-63
2021/12/31 05:55:34;;;;;;;;;;;13.10;99.90;;;;;;5082105;28;19920;-63
2021/12/31 05:58:01;;;;;;;;;;;13.20;99.90;;;;;;5079658;28;19917;-63
2021/12/31 06:00:27;;;;;;;;;;;13.20;99.90;;;;;;5102158;27;19916;-63
2021/12/31 06:02:53;;;;;;;;;;;13.20;99.90;;;;;;5100940;28;20864;-63
2021/12/31 06:05:19;;;;;;;;;;;13.20;99.90;;;;;;5095192;27;20018;-63
2021/12/31 06:07:45;;;;;;;;;;;13.20;99.90;;;;;;5087077;28;19916;-63
2021/12/31 06:10:10;;;;;;;;;;;13.30;99.90;;;;;;5084356;28;20367;-63
2021/12/31 06:12:37;;;;;;;;;;;13.20;99.90;;;;;;5081530;28;20334;-63
2021/12/31 06:15:04;;;;;;;;;;;13.20;99.90;;;;;;5080660;28;19990;-63
2021/12/31 06:17:33;;;;;;;;;;;13.20;99.90;;;;;;5079015;28;20005;-64
2021/12/31 06:19:58;;;;;;;;;;;13.20;99.90;;;;;;5083615;28;20363;-63
2021/12/31 06:22:24;;;;;;;;;;;13.20;99.90;;;;;;5077036;28;19935;-63
2021/12/31 06:24:50;;;;;;;;;;;13.20;99.90;;;;;;5072776;28;19916;-63
2021/12/31 06:27:15;;;;;;;;;;;13.20;99.90;;;;;;5077293;28;20608;-63
2021/12/31 06:29:41;;;;;;;;;;;13.20;99.90;;;;;;5076212;28;20015;-63
2021/12/31 06:32:06;;;;;;;;;;;13.20;99.90;;;;;;5075454;28;19917;-63
2021/12/31 06:34:32;;;;;;;;;;;13.20;99.90;;;;;;5080955;28;19924;-63
2021/12/31 06:36:57;;;;;;;;;;;13.10;99.90;;;;;;5079981;28;20540;-63
2021/12/31 06:39:25;;;;;;;;;;;13.10;99.90;;;;;;5072914;28;19920;-63
2021/12/31 06:41:51;;;;;;;;;;;13.10;99.90;;;;;;5087736;28;19923;-63
2021/12/31 06:44:16;;;;;;;;;;;13.00;99.90;;;;;;5085500;28;20534;-63
2021/12/31 06:46:42;;;;;;;;;;;13.00;99.90;;;;;;5072753;28;19923;-63
2021/12/31 06:49:07;;;;;;;;;;;12.90;99.90;;;;;;5077976;28;20029;-63
2021/12/31 06:51:32;;;;;;;;;;;12.90;99.90;;;;;;5081214;28;19923;-63
2021/12/31 06:53:58;;;;;;;;;;;13.00;99.90;;;;;;5081473;28;19926;-63
2021/12/31 06:56:23;;;;;;;;;;;12.90;99.90;;;;;;5079097;28;19997;-63
2021/12/31 06:58:49;;;;;;;;;;;12.90;99.90;;;;;;5088701;28;20369;-63
2021/12/31 07:01:14;;;;;;;;;;;12.90;99.90;;;;;;5074380;28;19916;-64
2021/12/31 07:03:40;;;;;;;;;;;12.80;99.90;;;;;;5081436;28;19923;-63
2021/12/31 07:06:05;;;;;;;;;;;12.90;99.90;;;;;;5079981;28;20469;-63
2021/12/31 07:08:31;;;;;;;;;;;12.70;99.90;;;;;;5080733;28;19920;-63
2021/12/31 07:10:56;;;;;;;;;;;12.80;99.90;;;;;;5082300;28;19916;-63
2021/12/31 07:13:22;;;;;;;;;;;12.80;99.90;;;;;;5078802;28;19925;-63
2021/12/31 07:15:49;;;;;;;;;;;12.70;99.90;;;;;;5064203;28;20288;-63
2021/12/31 07:18:15;;;;;;;;;;;12.70;99.90;;;;;;5076305;28;19920;-63
2021/12/31 07:20:41;;;;;;;;;;;12.70;99.90;;;;;;5080968;28;20345;-63
2021/12/31 07:23:08;;;;;;;;;;;12.70;99.90;;;;;;5074635;28;19981;-63
2021/12/31 07:25:34;;;;;;;;;;;12.80;99.90;;;;;;5077435;28;19920;-63
2021/12/31 07:27:59;;;;;;;;;;;12.70;99.90;;;;;;5074453;28;20394;-63
2021/12/31 07:30:25;;;;;;;;;;;12.70;99.90;;;;;;5074337;28;19964;-63
2021/12/31 07:32:50;;;;;;;;;;;12.70;99.90;;;;;;5074030;28;19924;-63
2021/12/31 07:35:16;;;;;;;;;;;12.70;99.90;;;;;;5081052;28;19916;-63
2021/12/31 07:37:41;;;;;;;;;;;12.70;99.90;;;;;;5080687;28;20053;-63
2021/12/31 07:40:10;;;;;;;;;;;12.70;99.90;;;;;;5077324;28;19924;-63
2021/12/31 07:42:36;;;;;;;;;;;12.70;99.90;;;;;;5079627;28;20524;-66
2021/12/31 07:45:02;;;;;;;;;;;12.70;99.90;;;;;;5091187;27;19926;-67
2021/12/31 07:47:27;;;;;;;;;;;12.80;99.90;;;;;;5078960;27;19920;-65
2021/12/31 07:49:52;;;;;;;;;;;12.90;99.90;;;;;;5066553;28;19935;-67
2021/12/31 07:52:18;;;;;;;;;;;12.80;99.90;;;;;;5082031;28;19923;-67
2021/12/31 07:54:43;;;;;;;;;;;12.80;99.90;;;;;;5069394;28;19927;-67
2021/12/31 07:57:09;;;;;;;;;;;12.70;99.90;;;;;;5079749;28;19927;-66
2021/12/31 07:59:34;;;;;;;;;;;12.80;99.90;;;;;;5077700;28;20224;-67
2021/12/31 08:02:00;;;;;;;;;;;12.80;99.90;;;;;;5076597;28;20401;-67
2021/12/31 08:04:25;;;;;;;;;;;12.70;99.90;;;;;;5077635;28;19921;-65
2021/12/31 08:06:51;;;;;;;;;;;12.70;99.90;;;;;;5078368;28;19921;-68
2021/12/31 08:09:16;;;;;;;;;;;12.20;99.90;;;;;;5079643;28;19916;-67
2021/12/31 08:11:42;;;;;;;;;;;12.60;99.90;;;;;;5078513;28;19916;-66
2021/12/31 08:14:07;;;;;;;;;;;12.60;99.90;;;;;;5077857;28;20006;-66
2021/12/31 08:16:33;;;;;;;;;;;12.60;99.90;;;;;;5074336;28;20490;-67
2021/12/31 08:18:58;;;;;;;;;;;12.60;99.90;;;;;;5062810;28;20547;-67
2021/12/31 08:21:24;;;;;;;;;;;12.60;99.90;;;;;;5078724;28;20157;-68
2021/12/31 08:23:49;;;;;;;;;;;12.60;99.90;;;;;;5079265;28;19924;-66
2021/12/31 08:26:15;;;;;;;;;;;12.60;99.90;;;;;;5075024;28;19947;-67
2021/12/31 08:28:40;;;;;;;;;;;12.60;99.90;;;;;;5078268;28;20256;-67
2021/12/31 08:31:06;;;;;;;;;;;12.60;99.90;;;;;;5071708;28;19916;-67
2021/12/31 08:33:31;;;;;;;;;;;12.60;99.90;;;;;;5055767;28;19920;-67
2021/12/31 08:35:57;;;;;;;;;;;12.60;99.90;;;;;;5073355;28;19985;-67
2021/12/31 08:38:23;;;;;;;;;;;12.60;99.90;;;;;;5078692;28;19928;-68
2021/12/31 08:40:48;;;;;;;;;;;12.60;99.90;;;;;;5083226;28;20028;-66
2021/12/31 08:43:14;;;;;;;;;;;12.60;99.90;;;;;;5077827;28;20196;-67
2021/12/31 08:45:39;;;;;;;;;;;12.60;99.90;;;;;;5082601;28;19928;-67
2021/12/31 08:48:05;;;;;;;;;;;12.70;99.90;;;;;;5085675;28;19924;-67
2021/12/31 08:50:31;;;;;;;;;;;12.70;99.90;;;;;;5080781;28;20605;-68
2021/12/31 08:52:57;;;;;;;;;;;12.70;99.90;;;;;;5081480;28;19920;-67
2021/12/31 08:55:22;;;;;;;;;;;12.80;99.90;;;;;;5075739;28;20274;-67
2021/12/31 08:57:48;;;;;;;;;;;12.70;99.90;;;;;;5080081;28;19947;-68
2021/12/31 09:00:14;;;;;;;;;;;12.70;99.90;;;;;;5081438;28;20374;-68
2021/12/31 09:02:40;;;;;;;;;;;12.70;99.90;;;;;;5065069;28;21126;-68
2021/12/31 09:05:06;;;;;;;;;;;12.70;99.90;;;;;;5080078;28;19923;-66
2021/12/31 09:07:31;;;;;;;;;;;12.70;99.90;;;;;;5083653;28;20416;-66
2021/12/31 09:09:57;;;;;;;;;;;12.80;99.90;;;;;;5081565;28;19916;-66
2021/12/31 09:12:22;;;;;;;;;;;12.80;99.90;;;;;;5075907;28;19924;-67
2021/12/31 09:14:48;;;;;;;;;;;12.80;99.90;;;;;;5081816;28;19927;-66
2021/12/31 09:17:13;;;;;;;;;;;12.80;99.90;;;;;;5076659;28;20858;-68
2021/12/31 09:19:39;;;;;;;;;;;12.80;99.90;;;;;;5084039;28;20014;-66
2021/12/31 09:22:04;;;;;;;;;;;12.80;99.90;;;;;;5081916;28;20587;-67
2021/12/31 09:24:30;;;;;;;;;;;12.80;99.90;;;;;;5079851;28;19916;-67
2021/12/31 09:26:56;;;;;;;;;;;12.80;99.90;;;;;;5063723;28;20353;-67
2021/12/31 09:29:23;;;;;;;;;;;12.80;99.90;;;;;;5079902;28;19927;-65
2021/12/31 09:31:52;;;;;;;;;;;12.80;99.90;;;;;;5063337;28;19924;-67
2021/12/31 09:34:18;;;;;;;;;;;12.90;99.90;;;;;;5077165;28;19966;-65
2021/12/31 09:36:43;;;;;;;;;;;12.90;99.90;;;;;;5075478;28;19959;-66
2021/12/31 09:39:09;;;;;;;;;;;12.90;99.90;;;;;;5076118;28;19920;-67
2021/12/31 09:41:34;;;;;;;;;;;13.00;99.90;;;;;;5083462;28;19916;-66
2021/12/31 09:44:00;;;;;;;;;;;12.90;99.90;;;;;;5102776;28;20568;-66
2021/12/31 09:46:26;;;;;;;;;;;12.90;99.90;;;;;;5098918;27;19997;-66
2021/12/31 09:48:51;;;;;;;;;;;13.00;99.90;;;;;;5095707;27;20248;-65
2021/12/31 09:51:17;;;;;;;;;;;12.90;99.90;;;;;;5101978;27;19915;-67
2021/12/31 09:53:43;;;;;;;;;;;12.90;99.90;;;;;;5083234;28;19977;-66
2021/12/31 09:56:09;;;;;;;;;;;12.90;99.90;;;;;;5102111;27;19927;-66
2021/12/31 09:58:35;;;;;;;;;;;12.90;99.90;;;;;;5099241;27;19919;-65
2021/12/31 10:01:01;;;;;;;;;;;13.00;99.90;;;;;;5091069;27;19942;-65
2021/12/31 10:03:29;;;;;;;;;;;13.00;99.90;;;;;;5076145;28;19932;-66
2021/12/31 10:05:58;;;;;;;;;;;13.00;99.90;;;;;;5079432;28;20321;-66
2021/12/31 10:08:29;;;;;;;;;;;12.90;99.90;;;;;;5084793;28;19955;-67
2021/12/31 10:11:07;;;;;;;;;;;13.40;99.90;;;;;;5079097;28;20377;-66
2021/12/31 10:13:33;;;;;;;;;;;13.00;99.90;;;;;;5076113;28;20394;-67
2021/12/31 10:15:59;;;;;;;;;;;13.00;99.90;;;;;;5080487;28;19973;-66
2021/12/31 10:18:28;;;;;;;;;;;13.00;99.90;;;;;;5081193;28;20351;-66
2021/12/31 10:20:53;;;;;;;;;;;13.00;99.90;;;;;;5079548;28;19924;-67
2021/12/31 10:23:19;;;;;;;;;;;13.10;99.90;;;;;;5085260;27;19923;-66
2021/12/31 10:25:46;;;;;;;;;;;13.10;99.90;;;;;;5082256;28;19920;-66
2021/12/31 10:28:13;;;;;;;;;;;13.20;99.90;;;;;;5071960;28;19923;-66
2021/12/31 10:30:39;;;;;;;;;;;13.20;99.90;;;;;;5077534;28;19924;-66
2021/12/31 10:33:05;;;;;;;;;;;13.30;99.90;;;;;;5079669;28;19970;-67
2021/12/31 10:35:44;;;;;;;;;;;13.20;99.90;;;;;;5075553;28;19926;-65
2021/12/31 10:38:12;;;;;;;;;;;13.20;99.90;;;;;;5070421;28;20562;-65
2021/12/31 10:40:45;;;;;;;;;;;13.20;99.90;;;;;;5058083;28;19921;-67
2021/12/31 10:43:12;;;;;;;;;;;13.30;99.90;;;;;;5077743;28;19939;-66
2021/12/31 10:45:38;;;;;;;;;;;13.30;99.90;;;;;;5076023;28;20026;-65
2021/12/31 10:48:05;;;;;;;;;;;13.40;99.90;;;;;;5072649;28;19925;-65
2021/12/31 10:50:32;;;;;;;;;;;13.40;99.90;;;;;;5077357;28;19920;-65
2021/12/31 10:53:11;;;;;;;;;;;13.40;99.90;;;;;;5079809;28;19916;-65
2021/12/31 10:55:41;;;;;;;;;;;13.40;99.90;;;;;;5076699;28;19966;-66
2021/12/31 10:58:09;;;;;;;;;;;13.40;99.90;;;;;;5073806;28;19924;-66
2021/12/31 11:00:40;;;;;;;;;;;13.40;99.90;;;;;;5085883;28;19981;-66
2021/12/31 11:03:06;;;;;;;;;;;13.40;99.90;;;;;;5072652;28;19924;-66
2021/12/31 11:05:31;;;;;;;;;;;13.30;99.90;;;;;;5076127;28;20011;-66
2021/12/31 11:08:01;;;;;;;;;;;13.30;99.90;;;;;;5079160;28;19916;-66
2021/12/31 11:10:28;;;;;;;;;;;13.40;99.90;;;;;;5062442;28;19920;-66
2021/12/31 11:12:54;;;;;;;;;;;13.30;99.90;;;;;;5076410;28;20807;-66
2021/12/31 11:15:20;;;;;;;;;;;13.40;99.90;;;;;;5079472;28;19924;-66
2021/12/31 11:17:46;;;;;;;;;;;13.40;99.90;;;;;;5075224;28;20318;-67
2021/12/31 11:20:13;;;;;;;;;;;13.40;99.90;;;;;;5080715;28;19916;-66
2021/12/31 11:22:38;;;;;;;;;;;13.40;99.90;;;;;;5080331;28;19920;-66
2021/12/31 11:25:21;;;;;;;;;;;13.40;99.90;;;;;;5082276;28;19923;-67
2021/12/31 11:27:47;;;;;;;;;;;13.40;99.90;;;;;;5079645;28;19923;-66
2021/12/31 11:30:45;;;;;;;;;;;13.40;99.90;;;;;;5077372;28;19927;-68
2021/12/31 11:33:14;;;;;;;;;;;13.50;99.90;;;;;;5046117;28;19959;-67
2021/12/31 11:35:58;;;;;;;;;;;13.50;99.90;;;;;;5080351;28;20769;-66
2021/12/31 11:38:24;;;;;;;;;;;13.50;99.90;;;;;;5073732;28;19920;-66
2021/12/31 11:41:07;;;;;;;;;;;13.50;99.90;;;;;;5073909;28;20271;-68
2021/12/31 11:43:33;;;;;;;;;;;13.60;99.90;;;;;;5073883;28;19920;-67
2021/12/31 11:46:22;;;;;;;;;;;13.60;99.90;;;;;;5088095;28;19916;-66
2021/12/31 11:48:51;;;;;;;;;;;13.50;99.90;;;;;;5094217;27;19920;-66
2021/12/31 11:51:21;;;;;;;;;;;13.60;99.90;;;;;;5096994;28;19931;-67
2021/12/31 11:53:56;;;;;;;;;;;13.60;99.90;;;;;;5079785;27;19939;-66
2021/12/31 11:56:36;;;;;;;;;;;13.70;99.90;;;;;;5075641;28;19916;-67
2021/12/31 11:59:14;;;;;;;;;;;13.70;99.90;;;;;;5075102;28;19924;-66
2021/12/31 12:01:39;;;;;;;;;;;13.70;99.90;;;;;;5072789;28;19916;-66
2021/12/31 12:04:17;;;;;;;;;;;13.70;99.90;;;;;;5077605;28;20657;-68
2021/12/31 12:07:01;;;;;;;;;;;13.70;99.90;;;;;;5074588;28;19935;-66
2021/12/31 12:09:35;;;;;;;;;;;13.80;99.90;;;;;;5074548;28;19961;-65
2021/12/31 12:12:11;;;;;;;;;;;13.70;99.90;;;;;;5077429;28;19988;-67
2021/12/31 12:14:37;;;;;;;;;;;13.70;99.90;;;;;;5061325;28;19917;-66
2021/12/31 12:17:03;;;;;;;;;;;13.70;99.90;;;;;;5080324;28;19994;-67
2021/12/31 12:19:51;;;;;;;;;;;13.90;99.90;;;;;;5087205;28;20019;-68
2021/12/31 12:22:26;;;;;;;;;;;13.80;99.90;;;;;;5075271;28;19924;-67
2021/12/31 12:24:52;;;;;;;;;;;13.80;99.90;;;;;;5079833;28;19956;-68
2021/12/31 12:27:20;;;;;;;;;;;13.80;99.90;;;;;;5080777;28;19973;-68
2021/12/31 12:29:45;;;;;;;;;;;13.80;99.90;;;;;;5072415;28;19920;-67
2021/12/31 12:32:12;;;;;;;;;;;13.90;99.90;;;;;;5074497;28;19916;-68
2021/12/31 12:34:37;;;;;;;;;;;13.90;99.90;;;;;;5083632;28;19920;-68
2021/12/31 12:37:03;;;;;;;;;;;13.90;99.90;;;;;;5081596;28;20367;-67
2021/12/31 12:39:29;;;;;;;;;;;13.90;99.90;;;;;;5085543;28;19924;-68
2021/12/31 12:41:55;;;;;;;;;;;14.00;99.90;;;;;;5077464;28;19928;-69
2021/12/31 12:44:20;;;;;;;;;;;14.00;99.90;;;;;;5081201;28;19927;-68
2021/12/31 12:46:58;;;;;;;;;;;13.90;99.90;;;;;;5073223;28;19920;-67
2021/12/31 12:49:26;;;;;;;;;;;13.90;99.90;;;;;;5103441;27;19916;-67
2021/12/31 12:51:52;;;;;;;;;;;13.80;99.90;;;;;;5088480;28;20423;-67
2021/12/31 12:54:22;;;;;;;;;;;13.80;99.90;;;;;;5072143;28;19916;-68
2021/12/31 12:56:48;;;;;;;;;;;13.80;99.90;;;;;;5078877;28;19960;-66
2021/12/31 12:59:20;;;;;;;;;;;13.90;99.90;;;;;;5081603;28;19924;-66
2021/12/31 13:01:48;;;;;;;;;;;13.90;99.90;;;;;;5077335;28;19975;-67
2021/12/31 13:04:15;;;;;;;;;;;13.90;99.90;;;;;;5085017;28;20465;-68
2021/12/31 13:06:43;;;;;;;;;;;13.90;99.90;;;;;;5079004;28;19923;-67
2021/12/31 13:09:10;;;;;;;;;;;13.90;99.90;;;;;;5090187;28;19993;-68
2021/12/31 13:11:40;;;;;;;;;;;13.90;99.90;;;;;;5073253;28;19920;-66
2021/12/31 13:14:13;;;;;;;;;;;13.80;99.90;;;;;;5057140;28;20648;-68
2021/12/31 13:16:39;;;;;;;;;;;13.90;99.90;;;;;;5084529;28;20197;-67
2021/12/31 13:19:08;;;;;;;;;;;13.90;99.90;;;;;;5079778;28;19922;-66
2021/12/31 13:21:35;;;;;;;;;;;14.00;99.90;;;;;;5064214;28;20030;-68
2021/12/31 13:24:01;;;;;;;;;;;14.00;99.90;;;;;;5077573;28;19931;-68
2021/12/31 13:26:28;;;;;;;;;;;14.10;99.90;;;;;;5051194;28;19916;-68
2021/12/31 13:28:57;;;;;;;;;;;14.00;99.90;;;;;;5054584;28;20022;-67
2021/12/31 13:31:49;;;;;;;;;;;14.00;99.90;;;;;;5070778;28;20558;-68
2021/12/31 13:34:17;;;;;;;;;;;14.00;99.90;;;;;;5081875;28;19983;-68
2021/12/31 13:36:52;;;;;;;;;;;14.10;99.90;;;;;;5066858;28;20049;-67
2021/12/31 13:39:28;;;;;;;;;;;14.20;99.90;;;;;;5086366;28;19920;-68
2021/12/31 13:41:58;;;;;;;;;;;14.20;99.90;;;;;;5079800;28;20425;-68
2021/12/31 13:44:28;;;;;;;;;;;14.20;99.90;;;;;;5075091;28;20407;-68
2021/12/31 13:46:58;;;;;;;;;;;14.20;99.90;;;;;;5055784;28;20395;-67
2021/12/31 13:49:24;;;;;;;;;;;14.20;99.90;;;;;;5074927;28;19923;-68
2021/12/31 13:51:50;;;;;;;;;;;14.20;99.90;;;;;;5079522;28;19920;-67
2021/12/31 13:54:16;;;;;;;;;;;14.20;99.90;;;;;;5080977;28;19927;-68
2021/12/31 13:56:42;;;;;;;;;;;14.20;99.90;;;;;;5072577;28;19916;-67
2021/12/31 13:59:27;;;;;;;;;;;14.20;99.90;;;;;;5083909;28;19916;-68
2021/12/31 14:02:15;;;;;;;;;;;14.30;99.90;;;;;;5079675;28;19928;-68
2021/12/31 14:04:53;;;;;;;;;;;14.20;99.90;;;;;;5092492;27;19927;-67
2021/12/31 14:07:21;;;;;;;;;;;14.10;99.90;;;;;;5078586;28;20290;-67
2021/12/31 14:09:48;;;;;;;;;;;14.10;99.90;;;;;;5084160;28;20347;-66
2021/12/31 14:12:14;;;;;;;;;;;14.10;99.90;;;;;;5081246;28;19924;-68
2021/12/31 14:14:42;;;;;;;;;;;14.10;99.90;;;;;;5092575;28;19927;-67
2021/12/31 14:17:08;;;;;;;;;;;14.10;99.90;;;;;;5098566;28;19916;-67
2021/12/31 14:19:34;;;;;;;;;;;14.20;99.90;;;;;;5081474;28;19939;-66